Time;durP1;ratioP1;P1;durP2;ratioP2;P2;SDS_P1;SDS_P2;PMS_P1;PMS_P2;Temp;Humidity;BMP_temperature;BMP_pressure;BME280_temperature;BME280_humidity;BME280_pressure;Samples;Min_cycle;Max_cycle;Signal;HPM_P1;HPM_P2
2021/04/20 00:01:16;;;;;;;31.95;16.63;;;;;;;;;;5074450;28;20039;-63
2021/04/20 00:03:41;;;;;;;31.20;17.50;;;;;;;;;;5074131;28;20024;-63
2021/04/20 00:06:09;;;;;;;30.77;15.45;;;;;;;;;;5072530;28;20039;-63
2021/04/20 00:08:34;;;;;;;33.72;15.95;;;;;;;;;;5071584;28;20060;-64
2021/04/20 00:10:59;;;;;;;31.35;16.15;;;;;;;;;;5072506;28;20086;-64
2021/04/20 00:13:24;;;;;;;29.33;15.32;;;;;;;;;;5072550;28;20028;-64
2021/04/20 00:15:50;;;;;;;28.05;15.43;;;;;;;;;;5071307;28;20027;-63
2021/04/20 00:18:15;;;;;;;28.92;15.18;;;;;;;;;;5071679;28;20056;-63
2021/04/20 00:20:40;;;;;;;25.35;14.88;;;;;;;;;;5060024;28;20034;-63
2021/04/20 00:23:06;;;;;;;30.60;15.35;;;;;;;;;;5073279;28;20029;-64
2021/04/20 00:25:32;;;;;;;30.60;16.48;;;;;;;;;;5072246;28;20017;-63
2021/04/20 00:27:57;;;;;;;29.67;15.73;;;;;;;;;;5072295;28;20099;-63
2021/04/20 00:30:22;;;;;;;26.48;15.45;;;;;;;;;;5072283;28;20035;-63
2021/04/20 00:32:47;;;;;;;26.58;15.10;;;;;;;;;;5072483;28;20102;-64
2021/04/20 00:35:13;;;;;;;29.83;15.40;;;;;;;;;;5072165;28;20017;-63
2021/04/20 00:37:38;;;;;;;25.98;14.20;;;;;;;;;;5070807;28;20024;-63
2021/04/20 00:40:05;;;;;;;26.35;14.98;;;;;;;;;;5071574;28;20472;-63
2021/04/20 00:42:30;;;;;;;26.15;14.75;;;;;;;;;;5072362;28;20368;-64
2021/04/20 00:44:55;;;;;;;29.15;15.90;;;;;;;;;;5071954;28;20017;-63
2021/04/20 00:47:20;;;;;;;23.45;14.38;;;;;;;;;;5072334;28;20451;-63
2021/04/20 00:49:45;;;;;;;25.05;14.27;;;;;;;;;;5068214;28;20031;-63
2021/04/20 00:52:11;;;;;;;31.20;15.30;;;;;;;;;;5058516;28;20058;-63
2021/04/20 00:54:36;;;;;;;33.13;15.82;;;;;;;;;;5071644;28;20020;-63
2021/04/20 00:57:01;;;;;;;31.60;16.13;;;;;;;;;;5071702;28;20021;-63
2021/04/20 00:59:26;;;;;;;31.95;14.82;;;;;;;;;;5071303;28;20025;-64
2021/04/20 01:01:52;;;;;;;31.50;15.70;;;;;;;;;;5071681;28;20028;-64
2021/04/20 01:04:17;;;;;;;27.75;15.15;;;;;;;;;;5071029;28;20080;-63
2021/04/20 01:06:46;;;;;;;29.25;15.07;;;;;;;;;;5072095;28;20052;-63
2021/04/20 01:09:12;;;;;;;25.27;14.55;;;;;;;;;;5071677;28;20100;-63
2021/04/20 01:11:39;;;;;;;30.33;15.10;;;;;;;;;;5071650;28;20099;-63
2021/04/20 01:14:05;;;;;;;26.20;14.27;;;;;;;;;;5071642;28;20420;-63
2021/04/20 01:16:32;;;;;;;27.90;14.82;;;;;;;;;;5070024;28;20025;-63
2021/04/20 01:18:57;;;;;;;27.58;14.32;;;;;;;;;;5071721;28;20070;-63
2021/04/20 01:21:22;;;;;;;24.58;13.65;;;;;;;;;;5069621;28;20025;-63
2021/04/20 01:23:56;;;;;;;28.63;14.40;;;;;;;;;;5071404;28;20527;-63
2021/04/20 01:26:26;;;;;;;26.77;14.25;;;;;;;;;;5069219;28;20769;-64
2021/04/20 01:28:51;;;;;;;23.83;13.63;;;;;;;;;;5070671;28;20025;-64
2021/04/20 01:31:17;;;;;;;24.10;13.55;;;;;;;;;;5071227;28;20029;-63
2021/04/20 01:33:42;;;;;;;25.63;13.15;;;;;;;;;;5070556;28;20047;-66
2021/04/20 01:36:11;;;;;;;24.92;13.77;;;;;;;;;;5070898;28;20469;-63
2021/04/20 01:38:37;;;;;;;25.40;12.98;;;;;;;;;;5069379;28;20476;-63
2021/04/20 01:41:02;;;;;;;27.67;12.52;;;;;;;;;;5070417;28;20024;-63
2021/04/20 01:43:28;;;;;;;24.38;13.85;;;;;;;;;;5070303;28;20020;-64
2021/04/20 01:45:54;;;;;;;23.40;12.80;;;;;;;;;;5070590;28;20503;-63
2021/04/20 01:48:19;;;;;;;24.70;12.52;;;;;;;;;;5070885;28;20032;-64
2021/04/20 01:50:45;;;;;;;25.33;12.45;;;;;;;;;;5070131;28;20027;-64
2021/04/20 01:53:10;;;;;;;26.25;13.55;;;;;;;;;;5061310;28;20021;-64
2021/04/20 01:55:36;;;;;;;23.80;12.85;;;;;;;;;;5071269;28;20360;-63
2021/04/20 01:58:02;;;;;;;23.10;12.05;;;;;;;;;;5070024;28;20012;-63
2021/04/20 02:00:28;;;;;;;21.83;12.85;;;;;;;;;;5071559;28;20042;-64
2021/04/20 02:02:53;;;;;;;24.95;12.65;;;;;;;;;;5070604;28;20031;-64
2021/04/20 02:05:19;;;;;;;23.25;12.65;;;;;;;;;;5070115;28;20107;-63
2021/04/20 02:07:44;;;;;;;26.58;13.77;;;;;;;;;;5064627;28;20040;-63
2021/04/20 02:10:10;;;;;;;25.20;13.43;;;;;;;;;;5070782;28;20028;-64
2021/04/20 02:12:36;;;;;;;23.60;12.85;;;;;;;;;;5069645;28;20035;-63
2021/04/20 02:15:04;;;;;;;22.98;13.38;;;;;;;;;;5054787;28;20107;-64
2021/04/20 02:17:29;;;;;;;23.98;12.75;;;;;;;;;;5070910;28;20111;-63
2021/04/20 02:19:54;;;;;;;26.52;13.43;;;;;;;;;;5069227;28;20104;-63
2021/04/20 02:22:20;;;;;;;25.25;13.10;;;;;;;;;;5069200;28;20411;-64
2021/04/20 02:24:45;;;;;;;20.85;12.65;;;;;;;;;;5070194;28;20090;-63
2021/04/20 02:27:11;;;;;;;23.33;11.77;;;;;;;;;;5069264;28;20020;-64
2021/04/20 02:29:36;;;;;;;25.95;11.98;;;;;;;;;;5070121;28;20059;-63
2021/04/20 02:32:01;;;;;;;19.40;11.73;;;;;;;;;;5069895;28;20070;-63
2021/04/20 02:34:26;;;;;;;22.67;12.30;;;;;;;;;;5070193;28;20021;-62
2021/04/20 02:36:54;;;;;;;22.75;13.05;;;;;;;;;;5068799;28;20517;-64
2021/04/20 02:39:19;;;;;;;22.85;12.00;;;;;;;;;;5070051;28;20046;-63
2021/04/20 02:41:45;;;;;;;24.42;12.98;;;;;;;;;;5070132;28;20168;-64
2021/04/20 02:44:11;;;;;;;24.30;12.32;;;;;;;;;;5070254;28;20048;-64
2021/04/20 02:46:37;;;;;;;26.65;12.93;;;;;;;;;;5060119;28;20483;-65
2021/04/20 02:49:02;;;;;;;24.60;12.05;;;;;;;;;;5069616;28;20095;-64
2021/04/20 02:51:27;;;;;;;22.77;12.82;;;;;;;;;;5083249;22;20041;-65
2021/04/20 02:53:53;;;;;;;26.65;13.00;;;;;;;;;;5065808;28;20177;-64
2021/04/20 02:56:19;;;;;;;24.63;12.27;;;;;;;;;;5071948;28;20047;-64
2021/04/20 02:58:44;;;;;;;25.40;12.88;;;;;;;;;;5089526;28;20024;-66
2021/04/20 03:01:17;;;;;;;21.23;11.48;;;;;;;;;;5083153;28;20411;-66
2021/04/20 03:03:43;;;;;;;22.38;12.27;;;;;;;;;;5082950;28;20052;-65
2021/04/20 03:06:08;;;;;;;23.27;11.98;;;;;;;;;;5082981;28;20249;-66
2021/04/20 03:08:34;;;;;;;25.02;12.20;;;;;;;;;;5071077;28;20024;-65
2021/04/20 03:11:03;;;;;;;20.27;11.75;;;;;;;;;;5054609;28;20028;-65
2021/04/20 03:13:28;;;;;;;23.30;13.02;;;;;;;;;;5070180;28;20042;-66
2021/04/20 03:15:54;;;;;;;23.48;12.48;;;;;;;;;;5083430;28;20012;-65
2021/04/20 03:18:19;;;;;;;21.27;11.65;;;;;;;;;;5087096;28;20019;-66
2021/04/20 03:20:44;;;;;;;22.55;12.05;;;;;;;;;;5084504;28;20032;-66
2021/04/20 03:23:10;;;;;;;25.60;11.88;;;;;;;;;;5078620;28;20047;-66
2021/04/20 03:25:35;;;;;;;24.00;11.93;;;;;;;;;;5068686;28;20023;-66
2021/04/20 03:28:00;;;;;;;22.23;11.88;;;;;;;;;;5075238;28;20032;-66
2021/04/20 03:30:27;;;;;;;29.27;12.07;;;;;;;;;;5075215;28;20020;-66
2021/04/20 03:32:56;;;;;;;24.92;12.25;;;;;;;;;;5085020;28;20024;-66
2021/04/20 03:35:27;;;;;;;25.13;12.98;;;;;;;;;;5069985;28;20021;-66
2021/04/20 03:38:11;;;;;;;24.23;12.05;;;;;;;;;;5076382;28;20016;-65
2021/04/20 03:40:38;;;;;;;21.88;11.57;;;;;;;;;;5085911;28;20020;-66
2021/04/20 03:43:08;;;;;;;24.35;12.63;;;;;;;;;;5085425;28;20024;-66
2021/04/20 03:45:37;;;;;;;22.20;11.95;;;;;;;;;;5081817;28;20101;-66
2021/04/20 03:48:23;;;;;;;21.33;12.40;;;;;;;;;;5079188;28;20076;-66
2021/04/20 03:51:03;;;;;;;20.73;11.52;;;;;;;;;;5085850;28;20036;-65
2021/04/20 03:53:30;;;;;;;22.02;11.80;;;;;;;;;;5075341;28;20108;-66
2021/04/20 03:55:57;;;;;;;21.38;11.85;;;;;;;;;;5088660;28;20101;-65
2021/04/20 03:58:22;;;;;;;19.60;11.30;;;;;;;;;;5067599;28;20425;-66
2021/04/20 04:00:53;;;;;;;26.73;12.38;;;;;;;;;;5073504;28;20032;-65
2021/04/20 04:03:18;;;;;;;;;;;;;;;;;;5073926;28;20029;-65
2021/04/20 04:05:47;;;;;;;23.73;12.10;;;;;;;;;;5084320;28;19923;-66
2021/04/20 04:08:12;;;;;;;23.48;12.73;;;;;;;;;;5073852;28;20035;-65
2021/04/20 04:10:38;;;;;;;24.27;13.13;;;;;;;;;;5081352;28;20017;-66
2021/04/20 04:13:05;;;;;;;21.77;11.80;;;;;;;;;;5072860;28;20354;-66
2021/04/20 04:15:31;;;;;;;23.85;13.05;;;;;;;;;;5073318;28;20020;-64
2021/04/20 04:17:58;;;;;;;24.83;12.10;;;;;;;;;;5084769;28;20095;-64
2021/04/20 04:20:24;;;;;;;33.90;13.43;;;;;;;;;;5087276;28;20035;-66
2021/04/20 04:22:54;;;;;;;24.40;12.68;;;;;;;;;;5079884;28;20020;-65
2021/04/20 04:25:22;;;;;;;25.15;12.65;;;;;;;;;;5080929;28;20400;-66
2021/04/20 04:27:49;;;;;;;30.90;13.10;;;;;;;;;;5084946;28;21319;-66
2021/04/20 04:30:14;;;;;;;37.50;14.13;;;;;;;;;;5072670;28;20024;-66
2021/04/20 04:32:41;;;;;;;25.17;12.88;;;;;;;;;;5074111;28;20099;-65
2021/04/20 04:35:06;;;;;;;25.40;13.10;;;;;;;;;;5074793;28;20163;-66
2021/04/20 04:37:33;;;;;;;21.17;12.02;;;;;;;;;;5077562;28;20516;-66
2021/04/20 04:39:59;;;;;;;23.45;12.32;;;;;;;;;;5084009;28;20607;-66
2021/04/20 04:42:24;;;;;;;21.65;11.55;;;;;;;;;;5076251;28;20038;-65
2021/04/20 04:44:49;;;;;;;24.80;13.07;;;;;;;;;;5088457;28;20297;-66
2021/04/20 04:47:15;;;;;;;26.75;13.63;;;;;;;;;;5081375;28;20029;-65
2021/04/20 04:49:40;;;;;;;30.02;13.35;;;;;;;;;;5075405;28;20465;-66
2021/04/20 04:52:05;;;;;;;25.42;12.77;;;;;;;;;;5072423;28;20085;-65
2021/04/20 04:54:31;;;;;;;26.38;13.38;;;;;;;;;;5072672;28;20017;-65
2021/04/20 04:56:57;;;;;;;25.77;13.88;;;;;;;;;;5071225;28;20372;-65
2021/04/20 04:59:23;;;;;;;25.67;12.60;;;;;;;;;;5071450;28;20020;-66
2021/04/20 05:01:51;;;;;;;28.48;13.23;;;;;;;;;;5071061;28;20024;-66
2021/04/20 05:04:16;;;;;;;28.23;13.82;;;;;;;;;;5072173;28;20019;-65
2021/04/20 05:06:45;;;;;;;25.85;13.60;;;;;;;;;;5083346;28;20028;-66
2021/04/20 05:09:11;;;;;;;23.70;13.55;;;;;;;;;;5080438;28;20036;-65
2021/04/20 05:11:40;;;;;;;27.23;15.10;;;;;;;;;;5068584;28;20025;-66
2021/04/20 05:14:05;;;;;;;25.20;13.95;;;;;;;;;;5077318;28;20376;-66
2021/04/20 05:16:30;;;;;;;25.30;13.52;;;;;;;;;;5070949;28;20115;-65
2021/04/20 05:18:59;;;;;;;27.58;13.45;;;;;;;;;;5069892;28;20373;-65
2021/04/20 05:21:24;;;;;;;26.27;13.45;;;;;;;;;;5067787;28;20043;-66
2021/04/20 05:23:52;;;;;;;31.45;15.23;;;;;;;;;;5069175;28;20469;-66
2021/04/20 05:26:17;;;;;;;27.77;14.30;;;;;;;;;;5064768;28;20322;-67
2021/04/20 05:28:42;;;;;;;35.20;16.02;;;;;;;;;;5068884;28;20028;-66
2021/04/20 05:31:08;;;;;;;28.27;15.23;;;;;;;;;;5062440;28;20480;-66
2021/04/20 05:33:33;;;;;;;29.48;14.88;;;;;;;;;;5068868;28;20393;-65
2021/04/20 05:36:05;;;;;;;29.40;14.73;;;;;;;;;;5067536;28;20393;-65
2021/04/20 05:38:30;;;;;;;27.58;14.77;;;;;;;;;;5080922;28;20098;-66
2021/04/20 05:40:55;;;;;;;26.75;14.27;;;;;;;;;;5070572;28;20503;-66
2021/04/20 05:43:20;;;;;;;31.15;14.95;;;;;;;;;;5075473;28;20112;-66
2021/04/20 05:45:46;;;;;;;30.92;15.70;;;;;;;;;;5072045;28;20025;-65
2021/04/20 05:48:11;;;;;;;29.50;13.20;;;;;;;;;;5071245;28;20987;-66
2021/04/20 05:50:36;;;;;;;32.70;14.77;;;;;;;;;;5071301;28;20107;-66
2021/04/20 05:53:01;;;;;;;33.83;15.18;;;;;;;;;;5071076;28;20409;-65
2021/04/20 05:55:27;;;;;;;28.50;15.27;;;;;;;;;;5066383;28;20271;-67
2021/04/20 05:57:52;;;;;;;26.83;13.80;;;;;;;;;;5065069;28;20415;-66
2021/04/20 06:00:19;;;;;;;29.83;15.77;;;;;;;;;;5070408;28;20035;-66
2021/04/20 06:02:48;;;;;;;31.52;16.02;;;;;;;;;;5075864;28;20016;-66
2021/04/20 06:05:15;;;;;;;29.05;15.65;;;;;;;;;;5082138;28;20103;-66
2021/04/20 06:07:45;;;;;;;32.60;16.67;;;;;;;;;;5069203;28;20029;-66
2021/04/20 06:10:11;;;;;;;33.38;17.30;;;;;;;;;;5068838;28;20024;-66
2021/04/20 06:12:37;;;;;;;27.88;16.08;;;;;;;;;;5070261;28;20020;-65
2021/04/20 06:15:06;;;;;;;34.47;15.10;;;;;;;;;;5073206;28;20074;-65
2021/04/20 06:17:33;;;;;;;28.48;15.75;;;;;;;;;;5075247;28;20536;-66
2021/04/20 06:19:58;;;;;;;24.90;12.10;;;;;;;;;;5068944;28;20054;-66
2021/04/20 06:22:23;;;;;;;22.50;10.77;;;;;;;;;;5084616;28;20055;-66
2021/04/20 06:24:49;;;;;;;31.13;16.15;;;;;;;;;;5078860;28;20055;-65
2021/04/20 06:27:15;;;;;;;28.27;13.02;;;;;;;;;;5082564;28;20059;-66
2021/04/20 06:29:40;;;;;;;28.67;16.25;;;;;;;;;;5073386;28;20547;-67
2021/04/20 06:32:06;;;;;;;31.23;13.48;;;;;;;;;;5078612;28;20519;-67
2021/04/20 06:34:32;;;;;;;31.58;16.70;;;;;;;;;;5071595;28;20017;-66
2021/04/20 06:36:58;;;;;;;29.67;16.13;;;;;;;;;;5082028;28;20036;-66
2021/04/20 06:39:24;;;;;;;30.10;16.92;;;;;;;;;;5089365;28;20040;-64
2021/04/20 06:41:50;;;;;;;26.20;15.77;;;;;;;;;;5073379;28;20795;-66
2021/04/20 06:44:19;;;;;;;28.88;16.70;;;;;;;;;;5073004;28;20032;-66
2021/04/20 06:46:47;;;;;;;29.08;15.73;;;;;;;;;;5070736;28;20017;-66
2021/04/20 06:49:15;;;;;;;29.75;14.88;;;;;;;;;;5067609;28;20452;-66
2021/04/20 06:51:47;;;;;;;28.08;16.40;;;;;;;;;;5069983;28;20021;-66
2021/04/20 06:54:20;;;;;;;23.55;13.05;;;;;;;;;;5085195;28;20062;-65
2021/04/20 06:56:50;;;;;;;26.27;14.40;;;;;;;;;;5077978;28;20016;-66
2021/04/20 06:59:16;;;;;;;27.55;14.23;;;;;;;;;;5064700;28;20370;-66
2021/04/20 07:01:47;;;;;;;22.15;12.93;;;;;;;;;;5064799;28;20025;-66
2021/04/20 07:04:13;;;;;;;23.00;13.77;;;;;;;;;;5075600;28;20020;-66
2021/04/20 07:07:05;;;;;;;19.98;13.88;;;;;;;;;;5066475;28;20079;-67
2021/04/20 07:09:32;;;;;;;19.42;13.02;;;;;;;;;;5040311;28;20032;-67
2021/04/20 07:11:57;;;;;;;18.98;13.50;;;;;;;;;;5068200;28;20086;-67
2021/04/20 07:14:36;;;;;;;20.83;14.35;;;;;;;;;;5077425;28;20021;-66
2021/04/20 07:17:11;;;;;;;18.55;11.90;;;;;;;;;;5072722;28;20025;-67
2021/04/20 07:19:45;;;;;;;18.33;12.90;;;;;;;;;;5071218;28;20044;-67
2021/04/20 07:22:36;;;;;;;19.05;12.93;;;;;;;;;;5074827;28;20037;-67
2021/04/20 07:25:05;;;;;;;21.77;12.85;;;;;;;;;;5086429;28;20066;-67
2021/04/20 07:27:49;;;;;;;19.48;13.63;;;;;;;;;;5073257;28;20048;-68
2021/04/20 07:30:21;;;;;;;17.25;12.18;;;;;;;;;;5083611;28;20024;-67
2021/04/20 07:32:53;;;;;;;16.33;12.05;;;;;;;;;;5087690;28;20052;-67
2021/04/20 07:35:57;;;;;;;18.90;11.30;;;;;;;;;;5080307;28;20024;-67
2021/04/20 07:38:28;;;;;;;15.90;11.52;;;;;;;;;;5011499;28;20093;-66
2021/04/20 07:41:02;;;;;;;16.73;11.80;;;;;;;;;;5014513;28;20021;-67
2021/04/20 07:43:27;;;;;;;16.60;11.35;;;;;;;;;;5052075;28;20028;-68
2021/04/20 07:45:52;;;;;;;16.13;11.32;;;;;;;;;;5066343;28;20131;-66
2021/04/20 07:48:20;;;;;;;14.95;10.68;;;;;;;;;;5074523;28;20025;-67
2021/04/20 07:50:47;;;;;;;15.98;11.60;;;;;;;;;;5086081;28;20024;-67
2021/04/20 07:53:16;;;;;;;15.13;10.65;;;;;;;;;;5087353;28;20107;-67
2021/04/20 07:55:41;;;;;;;15.10;11.57;;;;;;;;;;5061143;28;20110;-67
2021/04/20 07:58:07;;;;;;;17.02;11.90;;;;;;;;;;5072288;28;20061;-67
2021/04/20 08:00:35;;;;;;;16.45;10.57;;;;;;;;;;5073160;28;20036;-67
2021/04/20 08:03:15;;;;;;;22.27;11.68;;;;;;;;;;5077558;28;20072;-67
2021/04/20 08:05:48;;;;;;;17.40;13.02;;;;;;;;;;5078570;28;20063;-67
2021/04/20 08:08:21;;;;;;;17.65;13.43;;;;;;;;;;5090310;28;20096;-68
2021/04/20 08:10:51;;;;;;;18.73;14.05;;;;;;;;;;5072873;28;20020;-67
2021/04/20 08:13:18;;;;;;;24.23;14.48;;;;;;;;;;5090621;28;20032;-67
2021/04/20 08:15:48;;;;;;;23.92;17.25;;;;;;;;;;5087061;28;20472;-68
2021/04/20 08:18:34;;;;;;;24.25;16.10;;;;;;;;;;5089793;28;20067;-68
2021/04/20 08:21:00;;;;;;;24.63;16.80;;;;;;;;;;5086318;28;20035;-67
2021/04/20 08:23:26;;;;;;;27.60;16.50;;;;;;;;;;5082454;28;20043;-66
2021/04/20 08:26:13;;;;;;;26.02;17.25;;;;;;;;;;5073158;28;20020;-68
2021/04/20 08:28:38;;;;;;;28.83;19.08;;;;;;;;;;5088808;28;20371;-67
2021/04/20 08:31:06;;;;;;;25.75;18.73;;;;;;;;;;5078712;28;20104;-67
2021/04/20 08:33:34;;;;;;;22.63;16.75;;;;;;;;;;5076726;28;20553;-67
2021/04/20 08:36:08;;;;;;;26.17;19.13;;;;;;;;;;5077715;28;20058;-67
2021/04/20 08:38:33;;;;;;;24.45;16.23;;;;;;;;;;5092287;28;20495;-65
2021/04/20 08:41:06;;;;;;;26.45;17.17;;;;;;;;;;5091037;28;20024;-67
2021/04/20 08:43:31;;;;;;;27.38;18.92;;;;;;;;;;5073210;28;20029;-67
2021/04/20 08:46:15;;;;;;;27.67;19.27;;;;;;;;;;5084298;28;20031;-67
2021/04/20 08:48:52;;;;;;;32.97;21.60;;;;;;;;;;5062880;28;20024;-67
2021/04/20 08:51:21;;;;;;;33.92;20.38;;;;;;;;;;5076751;28;20038;-67
2021/04/20 08:54:18;;;;;;;30.35;19.85;;;;;;;;;;5072248;28;20020;-67
2021/04/20 08:56:50;;;;;;;30.00;20.08;;;;;;;;;;5025751;28;20032;-67
2021/04/20 08:59:18;;;;;;;24.80;13.15;;;;;;;;;;5091128;28;20023;-67
2021/04/20 09:01:46;;;;;;;26.50;18.15;;;;;;;;;;5076247;28;20111;-67
2021/04/20 09:04:16;;;;;;;30.58;19.38;;;;;;;;;;5075358;28;20032;-67
2021/04/20 09:06:51;;;;;;;25.52;17.27;;;;;;;;;;5072265;28;20024;-67
2021/04/20 09:09:24;;;;;;;29.25;19.15;;;;;;;;;;5072070;28;20389;-67
2021/04/20 09:12:00;;;;;;;25.33;16.65;;;;;;;;;;5078043;28;20036;-67
2021/04/20 09:14:28;;;;;;;30.17;18.35;;;;;;;;;;5079634;28;20083;-67
2021/04/20 09:16:57;;;;;;;31.13;18.60;;;;;;;;;;5083145;28;20052;-67
2021/04/20 09:19:28;;;;;;;30.25;17.42;;;;;;;;;;5077914;28;20099;-67
2021/04/20 09:21:57;;;;;;;34.13;18.55;;;;;;;;;;5076171;28;20390;-66
2021/04/20 09:24:25;;;;;;;27.73;16.48;;;;;;;;;;5073007;28;20443;-67
2021/04/20 09:26:54;;;;;;;27.50;17.10;;;;;;;;;;5073553;28;20427;-67
2021/04/20 09:29:28;;;;;;;29.05;17.73;;;;;;;;;;5071623;28;20154;-67
2021/04/20 09:31:55;;;;;;;28.00;17.55;;;;;;;;;;5070760;28;20489;-67
2021/04/20 09:34:21;;;;;;;27.40;16.38;;;;;;;;;;5070813;28;20489;-66
2021/04/20 09:36:47;;;;;;;21.40;13.48;;;;;;;;;;5073545;28;20016;-66
2021/04/20 09:39:13;;;;;;;18.08;12.52;;;;;;;;;;5073262;28;20541;-67
2021/04/20 09:41:43;;;;;;;20.20;14.38;;;;;;;;;;5071312;28;20024;-67
2021/04/20 09:44:16;;;;;;;17.80;8.88;;;;;;;;;;5071721;28;20032;-67
2021/04/20 09:46:41;;;;;;;14.95;10.07;;;;;;;;;;5060923;28;20028;-67
2021/04/20 09:49:19;;;;;;;16.00;10.00;;;;;;;;;;5075952;28;20016;-67
2021/04/20 09:51:50;;;;;;;21.60;13.35;;;;;;;;;;5070392;28;20035;-67
2021/04/20 09:54:19;;;;;;;27.33;15.70;;;;;;;;;;5067716;28;20016;-67
2021/04/20 09:57:00;;;;;;;21.67;12.77;;;;;;;;;;5072250;28;20019;-67
2021/04/20 09:59:28;;;;;;;20.45;12.98;;;;;;;;;;5086715;28;20296;-67
2021/04/20 10:02:21;;;;;;;20.98;12.93;;;;;;;;;;5080059;28;20806;-67
2021/04/20 10:05:05;;;;;;;18.42;12.48;;;;;;;;;;5073478;28;20101;-66
2021/04/20 10:07:36;;;;;;;17.67;11.77;;;;;;;;;;5082079;28;20028;-67
2021/04/20 10:10:21;;;;;;;16.27;11.80;;;;;;;;;;5089098;28;20303;-67
2021/04/20 10:13:06;;;;;;;19.92;13.35;;;;;;;;;;5075080;28;20020;-67
2021/04/20 10:15:34;;;;;;;21.17;12.57;;;;;;;;;;5078598;28;20020;-66
2021/04/20 10:17:59;;;;;;;20.15;13.30;;;;;;;;;;5085627;28;20450;-67
2021/04/20 10:20:54;;;;;;;21.10;13.53;;;;;;;;;;5071939;28;20021;-68
2021/04/20 10:23:19;;;;;;;18.63;12.38;;;;;;;;;;5071146;28;20346;-68
2021/04/20 10:25:48;;;;;;;18.33;11.93;;;;;;;;;;5070699;28;20104;-66
2021/04/20 10:28:35;;;;;;;24.50;11.53;;;;;;;;;;5077579;28;20107;-68
2021/04/20 10:31:06;;;;;;;21.23;12.73;;;;;;;;;;5068200;28;20025;-68
2021/04/20 10:33:33;;;;;;;17.58;11.85;;;;;;;;;;5071000;28;20034;-66
2021/04/20 10:35:59;;;;;;;16.15;10.90;;;;;;;;;;5070338;28;20111;-67
2021/04/20 10:38:30;;;;;;;20.55;12.75;;;;;;;;;;5081209;28;20028;-68
2021/04/20 10:40:55;;;;;;;16.45;11.88;;;;;;;;;;5075412;28;20404;-68
2021/04/20 10:43:22;;;;;;;16.92;11.10;;;;;;;;;;5070264;28;20027;-67
2021/04/20 10:45:48;;;;;;;17.98;12.30;;;;;;;;;;5077196;28;20553;-67
2021/04/20 10:48:15;;;;;;;17.40;11.82;;;;;;;;;;5073607;28;20032;-67
2021/04/20 10:50:41;;;;;;;19.25;12.27;;;;;;;;;;5070747;28;20051;-66
2021/04/20 10:53:13;;;;;;;18.02;11.85;;;;;;;;;;5072951;28;20031;-67
2021/04/20 10:55:40;;;;;;;19.85;11.68;;;;;;;;;;5083491;28;20087;-67
2021/04/20 10:58:07;;;;;;;17.63;11.35;;;;;;;;;;5071815;28;20032;-68
2021/04/20 11:00:33;;;;;;;17.75;11.20;;;;;;;;;;5055930;28;20324;-66
2021/04/20 11:02:59;;;;;;;20.15;10.82;;;;;;;;;;5069050;28;20099;-67
2021/04/20 11:05:25;;;;;;;24.42;11.45;;;;;;;;;;5069877;28;20492;-67
2021/04/20 11:07:51;;;;;;;17.42;11.10;;;;;;;;;;5068562;28;20536;-67
2021/04/20 11:10:17;;;;;;;15.55;10.00;;;;;;;;;;5084280;28;20024;-67
2021/04/20 11:12:44;;;;;;;21.10;12.45;;;;;;;;;;5087207;28;20024;-67
2021/04/20 11:15:14;;;;;;;19.40;12.60;;;;;;;;;;5082364;28;20016;-68
2021/04/20 11:17:42;;;;;;;17.35;10.35;;;;;;;;;;5071756;28;20552;-67
2021/04/20 11:20:23;;;;;;;20.42;11.70;;;;;;;;;;5073324;28;20176;-67
2021/04/20 11:22:50;;;;;;;15.93;9.05;;;;;;;;;;5059391;28;20020;-67
2021/04/20 11:25:28;;;;;;;17.17;11.77;;;;;;;;;;5069261;28;20021;-67
2021/04/20 11:27:56;;;;;;;17.75;10.05;;;;;;;;;;5077326;28;20020;-67
2021/04/20 11:30:25;;;;;;;14.55;9.85;;;;;;;;;;5076559;28;20106;-67
2021/04/20 11:32:53;;;;;;;13.98;10.23;;;;;;;;;;5069721;28;20078;-67
2021/04/20 11:35:20;;;;;;;18.17;11.45;;;;;;;;;;5072545;28;20074;-68
2021/04/20 11:37:46;;;;;;;20.83;10.48;;;;;;;;;;5073909;28;20021;-67
2021/04/20 11:40:27;;;;;;;19.00;11.45;;;;;;;;;;5061334;28;20025;-68
2021/04/20 11:42:53;;;;;;;19.13;10.90;;;;;;;;;;5066542;28;20029;-68
2021/04/20 11:45:23;;;;;;;21.00;11.48;;;;;;;;;;5065413;28;20012;-67
2021/04/20 11:47:49;;;;;;;19.07;10.53;;;;;;;;;;5059222;28;20029;-68
2021/04/20 11:50:16;;;;;;;20.00;12.25;;;;;;;;;;5064413;28;20489;-67
2021/04/20 11:52:42;;;;;;;22.08;10.45;;;;;;;;;;5065851;28;20028;-67
2021/04/20 11:55:10;;;;;;;15.60;10.27;;;;;;;;;;5061385;28;20469;-67
2021/04/20 11:57:37;;;;;;;18.92;11.13;;;;;;;;;;5064468;28;20023;-67
2021/04/20 12:00:05;;;;;;;16.08;10.77;;;;;;;;;;5066450;28;20103;-66
2021/04/20 12:02:33;;;;;;;17.08;11.82;;;;;;;;;;5073133;28;20031;-66
2021/04/20 12:04:59;;;;;;;21.25;13.65;;;;;;;;;;5064819;28;20020;-66
2021/04/20 12:07:26;;;;;;;22.63;13.73;;;;;;;;;;5069129;28;20036;-66
2021/04/20 12:09:51;;;;;;;20.80;12.52;;;;;;;;;;5069843;28;20028;-66
2021/04/20 12:12:24;;;;;;;21.95;13.45;;;;;;;;;;5066394;28;20050;-67
2021/04/20 12:14:50;;;;;;;25.60;13.38;;;;;;;;;;5066279;28;20031;-66
2021/04/20 12:17:25;;;;;;;20.73;13.50;;;;;;;;;;5068294;28;20020;-67
2021/04/20 12:19:51;;;;;;;22.17;15.32;;;;;;;;;;5071282;28;20520;-66
2021/04/20 12:22:21;;;;;;;18.50;13.02;;;;;;;;;;5064511;28;20108;-66
2021/04/20 12:24:47;;;;;;;25.10;14.35;;;;;;;;;;5072077;28;20032;-66
2021/04/20 12:27:13;;;;;;;17.98;11.48;;;;;;;;;;5067866;28;20100;-66
2021/04/20 12:29:42;;;;;;;19.17;11.90;;;;;;;;;;5068315;28;20021;-66
2021/04/20 12:32:13;;;;;;;22.83;14.13;;;;;;;;;;5075098;28;20032;-67
2021/04/20 12:34:39;;;;;;;22.35;13.25;;;;;;;;;;5079307;28;20099;-67
2021/04/20 12:37:04;;;;;;;20.80;13.40;;;;;;;;;;5068441;28;20119;-66
2021/04/20 12:39:29;;;;;;;17.25;12.07;;;;;;;;;;5065669;28;20028;-66
2021/04/20 12:41:56;;;;;;;20.58;12.57;;;;;;;;;;5067248;28;20104;-66
2021/04/20 12:44:24;;;;;;;23.13;13.57;;;;;;;;;;5067867;28;20036;-66
2021/04/20 12:46:52;;;;;;;21.48;13.18;;;;;;;;;;5062933;28;20016;-66
2021/04/20 12:49:20;;;;;;;23.27;12.85;;;;;;;;;;5070837;28;20071;-66
2021/04/20 12:51:47;;;;;;;23.75;12.88;;;;;;;;;;5064136;28;20052;-66
2021/04/20 12:54:17;;;;;;;24.90;12.10;;;;;;;;;;5066034;28;20025;-67
2021/04/20 12:56:43;;;;;;;17.63;11.55;;;;;;;;;;5062933;28;20028;-66
2021/04/20 12:59:15;;;;;;;15.35;9.50;;;;;;;;;;5070103;28;20028;-66
2021/04/20 13:01:41;;;;;;;23.30;12.02;;;;;;;;;;5065179;28;20025;-66
2021/04/20 13:04:07;;;;;;;20.25;13.27;;;;;;;;;;5070051;28;20039;-66
2021/04/20 13:06:33;;;;;;;18.80;12.07;;;;;;;;;;5064360;28;20021;-67
2021/04/20 13:08:59;;;;;;;16.33;10.40;;;;;;;;;;5061445;28;20024;-66
2021/04/20 13:11:28;;;;;;;15.68;10.38;;;;;;;;;;5067059;28;20066;-66
2021/04/20 13:13:54;;;;;;;20.45;10.77;;;;;;;;;;5066942;28;20016;-66
2021/04/20 13:16:24;;;;;;;20.00;12.77;;;;;;;;;;5069812;28;20028;-68
2021/04/20 13:18:53;;;;;;;21.23;11.88;;;;;;;;;;5069976;28;20033;-65
2021/04/20 13:21:19;;;;;;;16.17;10.77;;;;;;;;;;5070632;28;20455;-65
2021/04/20 13:23:46;;;;;;;20.02;12.02;;;;;;;;;;5064690;28;20092;-66
2021/04/20 13:26:16;;;;;;;16.75;11.57;;;;;;;;;;5066904;28;20020;-65
2021/04/20 13:28:43;;;;;;;16.73;11.57;;;;;;;;;;5073932;28;20016;-65
2021/04/20 13:31:16;;;;;;;18.08;9.95;;;;;;;;;;5076741;28;20029;-69
2021/04/20 13:33:45;;;;;;;17.58;10.50;;;;;;;;;;5088790;28;20035;-66
2021/04/20 13:36:11;;;;;;;19.17;11.90;;;;;;;;;;5066819;28;20637;-69
2021/04/20 13:38:37;;;;;;;17.90;11.60;;;;;;;;;;5070469;28;20024;-69
2021/04/20 13:41:05;;;;;;;16.95;10.38;;;;;;;;;;5069311;28;20027;-65
2021/04/20 13:43:31;;;;;;;14.38;10.75;;;;;;;;;;5069848;28;20047;-65
2021/04/20 13:46:01;;;;;;;16.38;8.05;;;;;;;;;;5057190;28;20041;-65
2021/04/20 13:48:29;;;;;;;15.55;7.70;;;;;;;;;;5063064;28;20024;-68
2021/04/20 13:50:54;;;;;;;23.13;9.85;;;;;;;;;;5067096;28;20024;-68
2021/04/20 13:53:27;;;;;;;15.75;8.32;;;;;;;;;;5069780;28;20028;-68
2021/04/20 13:56:01;;;;;;;8.45;4.68;;;;;;;;;;5069562;28;20091;-66
2021/04/20 13:58:27;;;;;;;15.85;8.88;;;;;;;;;;5061810;28;20032;-65
2021/04/20 14:00:53;;;;;;;14.82;8.93;;;;;;;;;;5056869;28;20020;-65
2021/04/20 14:03:20;;;;;;;17.83;9.60;;;;;;;;;;5068664;28;20081;-66
2021/04/20 14:05:45;;;;;;;13.88;8.55;;;;;;;;;;5060502;28;20114;-68
2021/04/20 14:08:12;;;;;;;13.40;8.95;;;;;;;;;;5068429;28;20138;-66
2021/04/20 14:10:39;;;;;;;16.23;9.90;;;;;;;;;;5066428;28;20516;-66
2021/04/20 14:13:12;;;;;;;13.75;8.65;;;;;;;;;;5071740;28;20036;-65
2021/04/20 14:15:41;;;;;;;15.68;8.52;;;;;;;;;;5061491;28;20020;-66
2021/04/20 14:18:11;;;;;;;16.38;8.43;;;;;;;;;;5067747;28;20091;-65
2021/04/20 14:20:38;;;;;;;15.77;9.07;;;;;;;;;;5065673;28;20485;-65
2021/04/20 14:23:05;;;;;;;20.88;10.20;;;;;;;;;;5067051;28;20040;-68
2021/04/20 14:25:34;;;;;;;14.02;9.13;;;;;;;;;;5067415;28;20017;-66